Terminal Aerodrome Forecast
Issued by NWS

Home | Current Version | Previous Version | Graphics & Text | Print | Product List | Glossary On
Versions: 1 2 3 4 5 6 7 8 9 10 11 12 13 14 15 16 17 18 19
000
FTUS41 KCLE 171431 AAA
TAFFDY
TAF AMD
KFDY 171431Z 1715/1812 15010KT P6SM SCT025 BKN120
     FM172100 17010KT P6SM SCT035 BKN120
     FM180300 18010G16KT P6SM VCSH OVC025
     FM180600 18012G20KT 3SM -SHRA SCT008 OVC015=

USA.gov is the U.S. government's official web portal to all federal, state and local government web resources and services.